createdAt,value
2024-02-26T06:14:45.835Z,26.05
2024-02-26T06:17:58.725Z,23.52
2024-02-26T06:21:14.225Z,27.73
2024-02-26T06:24:26.969Z,23.65
2024-02-26T06:27:39.630Z,23.80
2024-02-26T06:30:53.599Z,25.02
2024-02-26T06:34:06.269Z,28.95
2024-02-26T06:37:19.207Z,28.42
2024-02-26T06:40:31.679Z,27.37
2024-02-26T06:43:44.370Z,28.73
2024-02-26T06:46:57.782Z,26.87
2024-02-26T06:50:12.527Z,28.12
2024-02-26T06:53:25.296Z,28.50
2024-02-26T06:56:38.008Z,33.53
2024-02-26T06:59:50.812Z,31.23
2024-02-26T07:03:03.642Z,28.62
2024-02-26T07:06:16.324Z,33.33
2024-02-26T07:09:29.170Z,29.77
2024-02-26T07:12:41.695Z,32.95
2024-02-26T07:15:54.442Z,30.42
2024-02-26T07:19:06.984Z,29.55
2024-02-26T07:22:19.757Z,33.22
2024-02-26T07:25:33.232Z,32.25
2024-02-26T07:28:46.005Z,34.88
2024-02-26T07:31:59.193Z,26.52
2024-02-26T07:35:11.977Z,31.58
2024-02-26T07:38:32.414Z,32.72
2024-02-26T07:41:55.042Z,28.25
2024-02-26T07:45:08.042Z,33.20
2024-02-26T07:48:20.797Z,33.63
2024-02-26T07:51:33.263Z,37.03
2024-02-26T07:54:45.985Z,36.38
2024-02-26T07:57:58.396Z,29.33
2024-02-26T08:01:14.755Z,32.38
2024-02-26T08:04:28.382Z,27.80
2024-02-26T08:07:43.727Z,30.12
2024-02-26T08:10:56.620Z,31.08
2024-02-26T08:14:09.122Z,32.72
2024-02-26T08:17:21.825Z,31.70
2024-02-26T08:20:34.256Z,27.73
2024-02-26T08:23:47.063Z,30.85
2024-02-26T08:26:59.582Z,30.70
2024-02-26T08:30:15.494Z,27.23
2024-02-26T08:33:28.313Z,34.08
2024-02-26T08:36:41.128Z,38.75
2024-02-26T08:39:53.685Z,33.33
2024-02-26T08:43:06.544Z,35.70
2024-02-26T08:46:19.181Z,35.65
2024-02-26T08:49:32.682Z,35.05
2024-02-26T08:52:47.412Z,40.03
2024-02-26T08:56:00.154Z,38.17
2024-02-26T08:59:12.667Z,34.45
2024-02-26T09:02:25.451Z,32.40
2024-02-26T09:05:37.888Z,37.03
2024-02-26T09:08:50.619Z,37.13
2024-02-26T09:12:03.769Z,36.80
2024-02-26T09:15:16.773Z,40.40
2024-02-26T09:18:30.569Z,40.22
2024-02-26T09:21:44.690Z,39.03
2024-02-26T09:24:57.131Z,35.63
2024-02-26T09:28:09.907Z,37.63
2024-02-26T09:31:22.303Z,34.40
2024-02-26T09:34:36.174Z,34.60
2024-02-26T09:37:50.183Z,34.10
2024-02-26T09:41:06.328Z,35.25
2024-02-26T09:44:22.349Z,37.85
2024-02-26T09:47:35.169Z,36.13
2024-02-26T09:50:48.013Z,34.90
2024-02-26T09:54:02.830Z,36.75
2024-02-26T09:57:18.115Z,30.10
2024-02-26T10:00:35.153Z,33.80
2024-02-26T10:03:51.698Z,30.73
2024-02-26T10:07:05.138Z,32.47
2024-02-26T10:10:18.713Z,37.10
2024-02-26T10:13:31.149Z,53.28
2024-02-26T10:16:47.924Z,38.78
2024-02-26T10:20:17.822Z,32.17
2024-02-26T10:23:30.726Z,30.92
2024-02-26T10:26:47.716Z,33.42
2024-02-26T10:30:20.348Z,32.78
2024-02-26T10:33:38.549Z,34.38
2024-02-26T10:36:53.765Z,34.05
2024-02-26T10:40:10.714Z,34.03
2024-02-26T10:43:23.412Z,31.60
2024-02-26T10:46:35.943Z,32.53
2024-02-26T10:49:51.351Z,28.62
2024-02-26T10:53:04.143Z,29.02
2024-02-26T10:56:16.835Z,26.65
2024-02-26T10:59:30.575Z,29.20
2024-02-26T11:02:43.278Z,25.62
2024-02-26T11:05:55.808Z,30.20
2024-02-26T11:09:09.462Z,28.27
2024-02-26T11:12:22.478Z,24.45
2024-02-26T11:15:35.471Z,26.60
2024-02-26T11:18:50.960Z,26.95
2024-02-26T11:22:15.780Z,27.40
2024-02-26T11:25:36.545Z,25.27
2024-02-26T11:28:52.588Z,24.25
2024-02-26T11:32:06.484Z,25.90
2024-02-26T11:35:19.890Z,24.12
2024-02-26T11:38:35.438Z,24.37
2024-02-26T11:41:48.297Z,25.48
2024-02-26T11:45:02.179Z,24.80
2024-02-26T11:48:16.431Z,22.30
2024-02-26T11:51:29.635Z,27.37
2024-02-26T11:54:58.173Z,27.55
2024-02-26T11:58:10.834Z,26.60
2024-02-26T12:01:40.208Z,30.92
2024-02-26T12:04:53.071Z,26.02
2024-02-26T12:08:09.161Z,28.12
2024-02-26T12:11:22.844Z,27.95
2024-02-26T12:14:43.229Z,29.63
2024-02-26T12:17:57.153Z,27.55
2024-02-26T12:21:15.938Z,29.55
2024-02-26T12:24:30.011Z,27.73
2024-02-26T12:27:43.720Z,25.80
2024-02-26T12:30:56.501Z,25.80
2024-02-26T12:34:11.145Z,24.23
2024-02-26T12:37:23.934Z,23.87
2024-02-26T12:40:36.545Z,24.90
2024-02-26T12:43:52.171Z,22.98
2024-02-26T12:47:05.423Z,23.17
2024-02-26T12:50:19.509Z,26.65
2024-02-26T12:53:32.941Z,25.77
2024-02-26T12:56:45.863Z,21.83
2024-02-26T12:59:58.491Z,23.83
2024-02-26T13:03:11.252Z,22.98
2024-02-26T13:06:24.420Z,24.20
2024-02-26T13:09:37.433Z,20.67
2024-02-26T13:12:56.570Z,23.90
2024-02-26T13:16:15.375Z,27.83
2024-02-26T13:19:29.259Z,21.65
2024-02-26T13:22:42.038Z,24.80
2024-02-26T13:25:57.515Z,24.17
2024-02-26T13:29:10.188Z,23.23
2024-02-26T13:32:22.584Z,24.77
2024-02-26T13:35:36.193Z,20.17
2024-02-26T13:38:56.026Z,20.30
2024-02-26T13:42:09.116Z,19.90
2024-02-26T13:45:21.607Z,22.37
2024-02-26T13:48:34.459Z,20.40
2024-02-26T13:51:47.007Z,22.77
2024-02-26T13:55:00.574Z,25.10
2024-02-26T13:58:14.747Z,21.27
2024-02-26T14:01:27.591Z,20.27
2024-02-26T14:04:40.383Z,22.33
2024-02-26T14:07:54.239Z,23.62
2024-02-26T14:11:07.305Z,20.40
2024-02-26T14:14:19.776Z,26.48
2024-02-26T14:17:32.450Z,24.45
2024-02-26T14:20:45.775Z,24.92
2024-02-26T14:23:58.505Z,22.75
2024-02-26T14:27:11.698Z,23.27
2024-02-26T14:30:24.530Z,27.42
2024-02-26T14:33:39.953Z,33.17
2024-02-26T14:36:52.743Z,29.20
2024-02-26T14:40:06.987Z,30.88
2024-02-26T14:43:19.646Z,31.87
2024-02-26T14:46:32.112Z,29.35
2024-02-26T14:49:44.860Z,35.42
2024-02-26T14:52:57.350Z,28.02
2024-02-26T14:56:10.647Z,30.85
2024-02-26T14:59:23.062Z,33.45
2024-02-26T15:02:35.756Z,31.12
2024-02-26T15:05:48.211Z,31.05
2024-02-26T15:09:01.924Z,32.83
2024-02-26T15:12:19.053Z,40.30
2024-02-26T15:15:32.546Z,33.25
2024-02-26T15:18:45.090Z,37.60
2024-02-26T15:21:57.976Z,37.40
2024-02-26T15:25:12.918Z,41.83
2024-02-26T15:28:29.884Z,44.30
2024-02-26T15:31:43.025Z,49.10
2024-02-26T15:34:56.094Z,51.65
2024-02-26T15:38:08.596Z,50.95
2024-02-26T15:41:21.309Z,62.30
2024-02-26T15:44:33.717Z,65.25
2024-02-26T15:47:48.806Z,64.62
2024-02-26T15:51:01.325Z,70.18
2024-02-26T15:54:14.076Z,57.78
2024-02-26T15:57:26.493Z,46.15
2024-02-26T16:00:43.248Z,46.45
2024-02-26T16:03:57.091Z,45.20
2024-02-26T16:07:14.152Z,49.08
2024-02-26T16:10:28.699Z,47.72
2024-02-26T16:13:41.263Z,46.72
2024-02-26T16:17:35.122Z,56.03
2024-02-26T16:20:48.450Z,59.90
2024-02-26T16:24:01.536Z,59.03
2024-02-26T16:27:14.291Z,48.08
2024-02-26T16:30:26.960Z,49.20
2024-02-26T16:33:39.879Z,49.00
2024-02-26T16:36:52.627Z,49.00
2024-02-26T16:40:06.175Z,56.42
2024-02-26T16:43:18.893Z,75.75
2024-02-26T16:46:31.352Z,67.90
2024-02-26T16:49:44.167Z,54.05
2024-02-26T16:52:56.928Z,51.37
2024-02-26T16:56:12.512Z,56.97
2024-02-26T16:59:29.315Z,55.45
2024-02-26T17:02:42.447Z,59.28
2024-02-26T17:05:54.946Z,62.75
2024-02-26T17:09:09.192Z,69.20
2024-02-26T17:12:23.446Z,61.90
2024-02-26T17:15:36.948Z,58.28
2024-02-26T17:18:49.454Z,57.30
2024-02-26T17:22:02.188Z,69.00
2024-02-26T17:25:15.066Z,76.95
2024-02-26T17:28:27.705Z,70.15
2024-02-26T17:31:43.625Z,67.43
2024-02-26T17:34:56.828Z,71.50
2024-02-26T17:38:09.377Z,76.22
2024-02-26T17:41:23.435Z,69.07
2024-02-26T17:44:37.712Z,77.80
2024-02-26T17:47:52.029Z,81.87
2024-02-26T17:51:07.169Z,83.35
2024-02-26T17:54:20.132Z,83.35
2024-02-26T17:57:32.712Z,82.47
2024-02-26T18:00:47.668Z,85.20
2024-02-26T18:04:00.490Z,81.25
2024-02-26T18:07:14.219Z,81.40
2024-02-26T18:10:26.958Z,82.45
2024-02-26T18:13:42.596Z,77.53
2024-02-26T18:16:55.274Z,86.10
2024-02-26T18:20:09.357Z,80.72
2024-02-26T18:23:21.989Z,88.03
2024-02-26T18:26:35.225Z,76.15
2024-02-26T18:29:47.921Z,77.12
2024-02-26T18:33:00.623Z,77.00
2024-02-26T18:36:13.721Z,79.90
2024-02-26T18:39:26.318Z,82.20
2024-02-26T18:42:40.700Z,72.07
2024-02-26T18:45:53.286Z,74.57
2024-02-26T18:49:06.056Z,74.12
2024-02-26T18:52:18.466Z,82.35
2024-02-26T18:55:31.347Z,76.40
2024-02-26T18:58:44.065Z,86.65
2024-02-26T19:01:56.764Z,91.00
2024-02-26T19:05:09.358Z,86.07
2024-02-26T19:08:22.228Z,93.57
2024-02-26T19:11:34.714Z,103.72
2024-02-26T19:14:47.441Z,101.68
2024-02-26T19:18:01.694Z,84.80
2024-02-26T19:21:14.504Z,75.62
2024-02-26T19:24:26.979Z,83.82
2024-02-26T19:27:39.776Z,74.85
2024-02-26T19:30:52.252Z,75.47
2024-02-26T19:34:05.123Z,70.40
2024-02-26T19:37:17.597Z,75.78
2024-02-26T19:40:30.523Z,85.32
2024-02-26T19:43:42.920Z,85.28
2024-02-26T19:46:55.593Z,81.28
2024-02-26T19:50:08.785Z,82.12
2024-02-26T19:53:21.785Z,73.22
2024-02-26T19:56:35.791Z,86.30
2024-02-26T19:59:48.418Z,80.47
2024-02-26T20:03:00.845Z,86.80
2024-02-26T20:06:14.936Z,76.65
2024-02-26T20:09:31.408Z,83.72
2024-02-26T20:12:44.383Z,84.82
2024-02-26T20:15:56.839Z,79.28
2024-02-26T20:19:10.430Z,82.35
2024-02-26T20:22:22.876Z,83.95
2024-02-26T20:25:36.477Z,77.43
2024-02-26T20:28:48.893Z,78.97
2024-02-26T20:32:01.600Z,74.70
2024-02-26T20:35:14.048Z,65.25
2024-02-26T20:38:26.703Z,64.32
2024-02-26T20:41:39.151Z,66.12
2024-02-26T20:44:52.253Z,70.47
2024-02-26T20:48:05.210Z,62.85
2024-02-26T20:51:18.033Z,57.47
2024-02-26T20:54:30.574Z,51.42
2024-02-26T20:57:43.974Z,46.08
2024-02-26T21:00:57.435Z,41.75
2024-02-26T21:04:10.178Z,42.13
2024-02-26T21:07:22.704Z,47.20
2024-02-26T21:10:35.686Z,45.80
2024-02-26T21:13:48.178Z,46.85
2024-02-26T21:17:00.892Z,47.15
2024-02-26T21:20:15.685Z,48.50
2024-02-26T21:23:28.512Z,45.47
2024-02-26T21:26:40.977Z,50.67
2024-02-26T21:29:53.716Z,47.53
2024-02-26T21:33:06.136Z,48.42
2024-02-26T21:36:19.156Z,48.00
2024-02-26T21:39:31.658Z,53.22
2024-02-26T21:42:44.384Z,48.65
2024-02-26T21:45:56.747Z,52.47
2024-02-26T21:49:09.500Z,52.65
2024-02-26T21:52:21.930Z,58.70
2024-02-26T21:55:35.123Z,49.38
2024-02-26T21:58:47.846Z,50.85
2024-02-26T22:02:00.563Z,51.00
2024-02-26T22:05:13.209Z,52.80
2024-02-26T22:08:25.849Z,44.80
2024-02-26T22:11:41.566Z,46.10
2024-02-26T22:14:54.230Z,47.25
2024-02-26T22:18:07.513Z,49.60
2024-02-26T22:21:19.877Z,51.28
2024-02-26T22:24:32.592Z,46.92
2024-02-26T22:27:47.021Z,43.83
2024-02-26T22:30:59.678Z,43.28
2024-02-26T22:34:12.215Z,43.58
2024-02-26T22:37:24.998Z,37.70
2024-02-26T22:40:37.897Z,37.85
2024-02-26T22:43:50.552Z,36.80
2024-02-26T22:47:02.931Z,38.90
2024-02-26T22:50:15.896Z,38.30
2024-02-26T22:53:28.265Z,36.03
2024-02-26T22:56:40.914Z,38.30
2024-02-26T22:59:53.338Z,39.83
2024-02-26T23:03:06.195Z,33.85
2024-02-26T23:06:18.729Z,35.78
2024-02-26T23:09:31.470Z,34.53
2024-02-26T23:12:44.006Z,34.92
2024-02-26T23:15:56.713Z,33.42
2024-02-26T23:19:09.135Z,37.88
2024-02-26T23:22:21.892Z,32.75
2024-02-26T23:25:34.685Z,36.45
2024-02-26T23:28:47.544Z,33.50
2024-02-26T23:31:59.944Z,41.00
2024-02-26T23:35:12.762Z,32.00
2024-02-26T23:38:25.197Z,34.28
2024-02-26T23:41:38.350Z,36.42
2024-02-26T23:44:52.617Z,37.13
2024-02-26T23:48:05.882Z,35.75
2024-02-26T23:51:18.390Z,33.85
2024-02-26T23:54:31.291Z,34.40
2024-02-26T23:57:43.747Z,33.03
